createdAt,value
2022-12-01T00:01:44.940Z,101921.25
2022-12-01T00:04:11.469Z,101909.19
2022-12-01T00:06:38.071Z,101920.63
2022-12-01T00:09:04.499Z,101916.22
2022-12-01T00:11:31.144Z,101920.03
2022-12-01T00:13:57.862Z,101919.19
2022-12-01T00:16:24.375Z,101922.09
2022-12-01T00:18:52.794Z,101924.63
2022-12-01T00:21:21.787Z,101928.47
2022-12-01T00:23:50.937Z,101928.13
2022-12-01T00:26:18.731Z,101922.88
2022-12-01T00:28:48.508Z,101924.28
2022-12-01T00:31:15.100Z,101921.56
2022-12-01T00:33:41.561Z,101917.91
2022-12-01T00:36:09.772Z,101923.22
2022-12-01T00:38:36.826Z,101925.41
2022-12-01T00:41:03.784Z,101926.19
2022-12-01T00:43:30.380Z,101924.78
2022-12-01T00:45:56.878Z,101923.47
2022-12-01T00:48:23.733Z,101921.16
2022-12-01T00:50:51.956Z,101921.44
2022-12-01T00:53:20.113Z,101918.41
2022-12-01T00:55:46.544Z,101925.59
2022-12-01T00:58:13.000Z,101932.91
2022-12-01T01:00:39.415Z,101933.75
2022-12-01T01:03:06.693Z,101929.81
2022-12-01T01:05:35.350Z,101929.81
2022-12-01T01:08:01.807Z,101937.22
2022-12-01T01:10:29.566Z,101933.50
2022-12-01T01:12:56.264Z,101936.25
2022-12-01T01:15:22.711Z,101939.25
2022-12-01T01:17:49.102Z,101934.66
2022-12-01T01:20:15.568Z,101939.50
2022-12-01T01:22:42.010Z,101933.72
2022-12-01T01:25:08.809Z,101944.38
2022-12-01T01:27:36.623Z,101941.25
2022-12-01T01:30:04.412Z,101937.50
2022-12-01T01:32:30.924Z,101942.72
2022-12-01T01:34:57.333Z,101932.69
2022-12-01T01:37:23.749Z,101943.22
2022-12-01T01:39:50.420Z,101944.59
2022-12-01T01:42:19.427Z,101942.31
2022-12-01T01:44:52.662Z,101949.47
2022-12-01T01:47:22.850Z,101950.50
2022-12-01T01:49:49.452Z,101950.66
2022-12-01T01:52:17.233Z,101948.66
2022-12-01T01:54:47.737Z,101952.59
2022-12-01T01:57:19.520Z,101954.28
2022-12-01T01:59:50.030Z,101956.75
2022-12-01T02:02:18.059Z,101952.50
2022-12-01T02:04:48.587Z,101957.50
2022-12-01T02:07:18.222Z,101960.16
2022-12-01T02:09:45.312Z,101950.56
2022-12-01T02:12:30.421Z,101952.66
2022-12-01T02:15:13.906Z,101947.81
2022-12-01T02:17:47.689Z,101957.84
2022-12-01T02:20:34.986Z,101956.97
2022-12-01T02:23:25.202Z,101956.47
2022-12-01T02:26:01.317Z,101958.66
2022-12-01T02:29:04.716Z,101957.41
2022-12-01T02:31:39.563Z,101958.28
2022-12-01T02:34:13.161Z,101949.88
2022-12-01T02:36:46.460Z,101954.22
2022-12-01T02:39:21.699Z,101950.47
2022-12-01T02:41:50.391Z,101952.84
2022-12-01T02:44:19.682Z,101955.59
2022-12-01T02:46:55.694Z,101947.97
2022-12-01T02:49:27.151Z,101955.69
2022-12-01T02:51:55.678Z,101948.47
2022-12-01T02:54:23.582Z,101955.97
2022-12-01T02:56:51.978Z,101955.66
2022-12-01T02:59:18.577Z,101953.00
2022-12-01T03:02:00.426Z,101954.38
2022-12-01T03:04:49.657Z,101954.50
2022-12-01T03:07:31.322Z,101950.03
2022-12-01T03:10:08.578Z,101958.34
2022-12-01T03:12:39.003Z,101955.53
2022-12-01T03:15:10.134Z,101959.06
2022-12-01T03:17:43.443Z,101958.63
2022-12-01T03:20:18.821Z,101958.47
2022-12-01T03:22:50.927Z,101959.75
2022-12-01T03:25:19.691Z,101963.44
2022-12-01T03:28:13.821Z,101957.78
2022-12-01T03:30:37.222Z,101966.19
2022-12-01T03:33:08.932Z,101957.94
2022-12-01T03:35:40.856Z,101954.59
2022-12-01T03:38:13.809Z,101961.09
2022-12-01T03:40:41.294Z,101963.16
2022-12-01T03:43:10.899Z,101960.47
2022-12-01T03:45:46.478Z,101961.41
2022-12-01T03:48:14.503Z,101965.81
2022-12-01T03:50:48.454Z,101957.94
2022-12-01T03:53:21.452Z,101953.72
2022-12-01T03:55:56.132Z,101957.34
2022-12-01T03:58:27.224Z,101954.88
2022-12-01T04:00:53.862Z,101954.59
2022-12-01T04:03:25.636Z,101958.09
2022-12-01T04:05:52.129Z,101959.09
2022-12-01T04:08:18.537Z,101957.88
2022-12-01T04:10:45.106Z,101959.56
2022-12-01T04:13:11.525Z,101962.31
2022-12-01T04:15:38.294Z,101963.22
2022-12-01T04:18:05.292Z,101957.41
2022-12-01T04:20:33.097Z,101959.31
2022-12-01T04:22:59.546Z,101965.41
2022-12-01T04:25:26.322Z,101966.75
2022-12-01T04:27:52.708Z,101972.84
2022-12-01T04:30:19.490Z,101976.94
2022-12-01T04:32:46.023Z,101972.88
2022-12-01T04:35:12.723Z,101971.97
2022-12-01T04:37:40.498Z,101968.94
2022-12-01T04:40:08.361Z,101973.13
2022-12-01T04:42:34.880Z,101980.91
2022-12-01T04:45:01.399Z,101975.63
2022-12-01T04:47:27.880Z,101975.16
2022-12-01T04:49:54.291Z,101977.91
2022-12-01T04:52:20.746Z,101975.94
2022-12-01T04:54:48.505Z,101977.53
2022-12-01T04:57:14.894Z,101971.75
2022-12-01T04:59:41.427Z,101982.56
2022-12-01T05:02:08.063Z,101984.56
2022-12-01T05:04:34.543Z,101991.16
2022-12-01T05:07:00.954Z,101985.53
2022-12-01T05:09:27.508Z,101988.16
2022-12-01T05:11:55.271Z,101983.47
2022-12-01T05:14:21.702Z,101990.25
2022-12-01T05:16:48.183Z,101991.69
2022-12-01T05:19:14.605Z,101998.03
2022-12-01T05:21:42.230Z,101997.88
2022-12-01T05:24:10.056Z,101995.78
2022-12-01T05:26:36.590Z,101993.16
2022-12-01T05:29:05.094Z,101989.53
2022-12-01T05:31:31.856Z,102003.19
2022-12-01T05:33:58.338Z,102003.44
2022-12-01T05:36:24.959Z,102011.31
2022-12-01T05:38:51.387Z,102009.41
2022-12-01T05:41:17.870Z,102010.59
2022-12-01T05:43:44.306Z,102015.63
2022-12-01T05:46:12.156Z,102013.34
2022-12-01T05:48:38.643Z,102009.41
2022-12-01T05:51:09.372Z,102011.22
2022-12-01T05:53:35.960Z,102016.56
2022-12-01T05:56:02.457Z,102020.06
2022-12-01T05:58:28.891Z,102023.34
2022-12-01T06:00:55.381Z,102025.88
2022-12-01T06:03:23.190Z,102029.59
2022-12-01T06:05:49.681Z,102029.72
2022-12-01T06:08:16.167Z,102039.34
2022-12-01T06:10:45.766Z,102035.91
2022-12-01T06:13:12.305Z,102038.47
2022-12-01T06:15:38.763Z,102040.19
2022-12-01T06:18:05.251Z,102043.38
2022-12-01T06:20:33.023Z,102043.44
2022-12-01T06:22:59.533Z,102041.06
2022-12-01T06:25:26.068Z,102053.03
2022-12-01T06:27:55.741Z,102057.69
2022-12-01T06:30:22.726Z,102051.63
2022-12-01T06:32:49.133Z,102050.31
2022-12-01T06:35:15.567Z,102050.13
2022-12-01T06:37:43.503Z,102051.44
2022-12-01T06:40:11.339Z,102052.34
2022-12-01T06:42:37.745Z,102057.06
2022-12-01T06:45:05.173Z,102054.56
2022-12-01T06:47:31.651Z,102057.25
2022-12-01T06:49:58.051Z,102058.06
2022-12-01T06:52:24.499Z,102066.81
2022-12-01T06:54:52.242Z,102059.31
2022-12-01T06:57:18.909Z,102064.44
2022-12-01T06:59:45.688Z,102059.13
2022-12-01T07:02:12.673Z,102055.75
2022-12-01T07:04:39.117Z,102058.31
2022-12-01T07:07:06.222Z,102065.09
2022-12-01T07:09:33.151Z,102069.25
2022-12-01T07:12:01.003Z,102063.16
2022-12-01T07:14:27.635Z,102063.31
2022-12-01T07:16:54.249Z,102064.59
2022-12-01T07:19:20.753Z,102064.00
2022-12-01T07:21:47.640Z,102062.34
2022-12-01T07:24:14.501Z,102057.84
2022-12-01T07:26:41.408Z,102062.16
2022-12-01T07:29:09.734Z,102066.09
2022-12-01T07:31:36.965Z,102074.34
2022-12-01T07:34:04.238Z,102085.53
2022-12-01T07:36:31.257Z,102074.72
2022-12-01T07:38:57.794Z,102083.63
2022-12-01T07:41:24.215Z,102085.13
2022-12-01T07:43:51.006Z,102080.91
2022-12-01T07:46:23.067Z,102074.56
2022-12-01T07:48:50.962Z,102089.00
2022-12-01T07:51:17.616Z,102077.50
2022-12-01T07:53:44.722Z,102075.91
2022-12-01T07:56:11.241Z,102083.69
2022-12-01T07:58:38.171Z,102084.41
2022-12-01T08:01:08.899Z,102088.38
2022-12-01T08:03:37.426Z,102082.72
2022-12-01T08:06:04.905Z,102091.97
2022-12-01T08:08:32.139Z,102086.63
2022-12-01T08:11:00.800Z,102088.06
2022-12-01T08:13:27.718Z,102086.63
2022-12-01T08:15:54.180Z,102092.22
2022-12-01T08:18:20.622Z,102093.03
2022-12-01T08:20:48.365Z,102103.84
2022-12-01T08:23:15.873Z,102107.25
2022-12-01T08:25:42.401Z,102104.28
2022-12-01T08:28:08.818Z,102106.81
2022-12-01T08:30:36.049Z,102113.53
2022-12-01T08:33:02.486Z,102117.47
2022-12-01T08:35:28.883Z,102118.09
2022-12-01T08:37:56.644Z,102114.13
2022-12-01T08:40:23.208Z,102114.16
2022-12-01T08:42:51.999Z,102115.53
2022-12-01T08:45:18.648Z,102110.69
2022-12-01T08:47:45.227Z,102115.47
2022-12-01T08:50:11.638Z,102113.78
2022-12-01T08:52:38.058Z,102116.94
2022-12-01T08:55:07.670Z,102123.97
2022-12-01T08:57:34.124Z,102120.34
2022-12-01T09:00:03.915Z,102119.63
2022-12-01T09:02:30.540Z,102119.94
2022-12-01T09:04:56.979Z,102120.00
2022-12-01T09:07:26.597Z,102117.25
2022-12-01T09:09:53.546Z,102128.34
2022-12-01T09:12:21.279Z,102128.16
2022-12-01T09:14:47.704Z,102126.84
2022-12-01T09:17:14.457Z,102125.19
2022-12-01T09:19:40.861Z,102131.09
2022-12-01T09:22:07.271Z,102133.34
2022-12-01T09:24:33.905Z,102144.19
2022-12-01T09:27:00.510Z,102141.09
2022-12-01T09:29:28.260Z,102141.72
2022-12-01T09:31:55.617Z,102139.59
2022-12-01T09:34:22.227Z,102132.13
2022-12-01T09:36:48.940Z,102122.44
2022-12-01T09:39:17.422Z,102131.25
2022-12-01T09:41:46.905Z,102126.81
2022-12-01T09:44:30.728Z,102131.16
2022-12-01T09:47:04.306Z,102135.81
2022-12-01T09:49:41.062Z,102137.06
2022-12-01T09:52:11.031Z,102129.66
2022-12-01T09:54:37.434Z,102140.84
2022-12-01T09:57:03.852Z,102131.38
2022-12-01T09:59:35.617Z,102124.44
2022-12-01T10:02:13.093Z,102120.16
2022-12-01T10:04:44.458Z,102121.13
2022-12-01T10:07:19.979Z,102127.53
2022-12-01T10:09:52.916Z,102123.81
2022-12-01T10:12:20.837Z,102124.28
2022-12-01T10:14:48.637Z,102109.03
2022-12-01T10:17:27.948Z,102119.53
2022-12-01T10:20:02.046Z,102119.44
2022-12-01T10:22:56.811Z,102110.22
2022-12-01T10:25:25.395Z,102109.97
2022-12-01T10:28:06.647Z,102107.44
2022-12-01T10:30:36.899Z,102105.81
2022-12-01T10:33:13.150Z,102103.53
2022-12-01T10:35:40.236Z,102102.69
2022-12-01T10:38:16.379Z,102107.94
2022-12-01T10:40:43.926Z,102109.53
2022-12-01T10:43:25.787Z,102100.59
2022-12-01T10:45:54.228Z,102105.66
2022-12-01T10:48:22.381Z,102108.53
2022-12-01T10:50:51.112Z,102104.78
2022-12-01T10:53:29.691Z,102103.16
2022-12-01T10:56:04.669Z,102101.69
2022-12-01T10:58:34.089Z,102105.88
2022-12-01T11:01:03.237Z,102102.44
2022-12-01T11:03:32.122Z,102103.81
2022-12-01T11:06:00.569Z,102099.19
2022-12-01T11:08:35.851Z,102098.59
2022-12-01T11:11:02.881Z,102088.13
2022-12-01T11:13:31.756Z,102089.34
2022-12-01T11:16:01.272Z,102086.50
2022-12-01T11:18:31.753Z,102083.50
2022-12-01T11:21:08.381Z,102091.44
2022-12-01T11:23:36.129Z,102085.31
2022-12-01T11:26:07.540Z,102088.97
2022-12-01T11:28:35.243Z,102085.59
2022-12-01T11:31:07.270Z,102081.66
2022-12-01T11:33:43.453Z,102079.50
2022-12-01T11:36:15.890Z,102089.47
2022-12-01T11:38:42.744Z,102083.25
2022-12-01T11:41:27.520Z,102082.81
2022-12-01T11:44:01.626Z,102084.56
2022-12-01T11:46:33.565Z,102092.16
2022-12-01T11:49:00.877Z,102083.31
2022-12-01T11:51:30.840Z,102079.31
2022-12-01T11:54:20.695Z,102074.31
2022-12-01T11:56:56.099Z,102077.06
2022-12-01T12:06:05.885Z,102079.06
2022-12-01T12:08:59.458Z,102080.75
2022-12-01T12:11:32.222Z,102069.31
2022-12-01T12:14:13.275Z,102070.06
2022-12-01T12:16:53.164Z,102071.28
2022-12-01T12:20:08.614Z,102072.31
2022-12-01T12:22:55.223Z,102072.66
2022-12-01T12:25:29.916Z,102065.66
2022-12-01T12:28:13.602Z,102067.03
2022-12-01T12:30:48.200Z,102059.53
2022-12-01T12:33:53.359Z,102064.50
2022-12-01T12:36:30.360Z,102062.38
2022-12-01T12:39:12.180Z,102071.03
2022-12-01T12:41:45.786Z,102067.31
2022-12-01T12:44:37.243Z,102058.47
2022-12-01T12:47:12.859Z,102062.97
2022-12-01T12:49:47.588Z,102066.31
2022-12-01T12:52:18.474Z,102058.31
2022-12-01T12:54:50.118Z,102058.56
2022-12-01T12:57:25.492Z,102056.16
2022-12-01T12:59:56.325Z,102058.03
2022-12-01T13:02:26.608Z,102055.38
2022-12-01T13:04:59.409Z,102058.31
2022-12-01T13:07:35.487Z,102054.41
2022-12-01T13:10:11.663Z,102046.50
2022-12-01T13:12:43.543Z,102049.03
2022-12-01T13:15:16.081Z,102044.16
2022-12-01T13:17:45.195Z,102043.44
2022-12-01T13:20:14.558Z,102035.72
2022-12-01T13:22:41.542Z,102035.13
2022-12-01T13:25:13.224Z,102034.75
2022-12-01T13:27:41.800Z,102038.06
2022-12-01T13:30:18.454Z,102033.59
2022-12-01T13:32:46.347Z,102046.09
2022-12-01T13:35:24.936Z,102041.69
2022-12-01T13:37:51.519Z,102037.66
2022-12-01T13:40:24.129Z,102045.78
2022-12-01T13:42:56.870Z,102045.75
2022-12-01T13:45:23.896Z,102048.09
2022-12-01T13:47:53.123Z,102039.84
2022-12-01T13:50:55.101Z,102042.25
2022-12-01T13:53:27.952Z,102044.00
2022-12-01T13:55:59.138Z,102041.63
2022-12-01T13:58:42.101Z,102044.78
2022-12-01T14:01:45.873Z,102038.91
2022-12-01T14:04:30.683Z,102047.34
2022-12-01T14:07:21.352Z,102047.84
2022-12-01T14:09:50.984Z,102049.13
2022-12-01T14:12:20.958Z,102055.47
2022-12-01T14:14:52.489Z,102054.94
2022-12-01T14:17:26.012Z,102055.59
2022-12-01T14:19:53.447Z,102060.19
2022-12-01T14:22:32.934Z,102061.50
2022-12-01T14:25:00.657Z,102068.50
2022-12-01T14:27:37.463Z,102062.00
2022-12-01T14:30:41.325Z,102062.38
2022-12-01T14:33:48.634Z,102069.66
2022-12-01T14:36:26.666Z,102065.38
2022-12-01T14:39:00.492Z,102071.78
2022-12-01T14:41:29.009Z,102070.41
2022-12-01T14:44:01.926Z,102079.78
2022-12-01T14:46:31.970Z,102069.56
2022-12-01T14:48:58.777Z,102070.69
2022-12-01T14:51:27.813Z,102068.91
2022-12-01T14:53:56.955Z,102078.16
2022-12-01T14:56:25.117Z,102074.44
2022-12-01T14:58:57.689Z,102068.75
2022-12-01T15:01:29.757Z,102066.13
2022-12-01T15:03:59.005Z,102072.63
2022-12-01T15:06:28.194Z,102064.81
2022-12-01T15:09:32.836Z,102063.06
2022-12-01T15:11:57.959Z,102067.13
2022-12-01T15:14:30.887Z,102060.69
2022-12-01T15:16:57.807Z,102058.16
2022-12-01T15:19:32.765Z,102055.31
2022-12-01T15:22:02.352Z,102050.19
2022-12-01T15:24:28.889Z,102052.16
2022-12-01T15:27:02.093Z,102048.13
2022-12-01T15:29:33.663Z,102051.69
2022-12-01T15:32:01.727Z,102040.06
2022-12-01T15:34:31.689Z,102044.06
2022-12-01T15:36:59.603Z,102037.66
2022-12-01T15:39:31.183Z,102041.16
2022-12-01T15:41:58.337Z,102045.91
2022-12-01T15:44:28.691Z,102050.06
2022-12-01T15:46:56.783Z,102048.00
2022-12-01T15:49:28.644Z,102045.69
2022-12-01T15:52:03.483Z,102046.47
2022-12-01T15:54:30.427Z,102041.94
2022-12-01T15:56:58.592Z,102041.78
2022-12-01T15:59:31.123Z,102048.84
2022-12-01T16:01:59.427Z,102052.69
2022-12-01T16:04:28.014Z,102053.75
2022-12-01T16:06:59.186Z,102053.09
2022-12-01T16:09:29.682Z,102057.78
2022-12-01T16:12:24.046Z,102051.91
2022-12-01T16:14:52.862Z,102056.16
2022-12-01T16:17:21.656Z,102054.56
2022-12-01T16:19:48.143Z,102053.22
2022-12-01T16:22:17.489Z,102050.09
2022-12-01T16:24:46.185Z,102052.16
2022-12-01T16:27:19.401Z,102063.03
2022-12-01T16:29:49.435Z,102063.38
2022-12-01T16:32:21.062Z,102054.81
2022-12-01T16:34:50.082Z,102051.75
2022-12-01T16:37:17.189Z,102051.75
2022-12-01T16:39:43.836Z,102055.91
2022-12-01T16:42:14.791Z,102053.03
2022-12-01T16:44:42.126Z,102054.69
2022-12-01T16:47:20.061Z,102058.16
2022-12-01T16:49:46.677Z,102054.88
2022-12-01T16:55:01.047Z,102058.97
2022-12-01T16:57:27.482Z,102055.44
2022-12-01T16:59:53.856Z,102051.47
2022-12-01T17:02:20.495Z,102055.75
2022-12-01T17:04:46.956Z,102053.63
2022-12-01T17:07:14.707Z,102047.50
2022-12-01T17:09:41.125Z,102050.06
2022-12-01T17:12:07.822Z,102053.56
2022-12-01T17:14:35.549Z,102053.22
2022-12-01T17:17:02.025Z,102048.06
2022-12-01T17:19:28.437Z,102057.06
2022-12-01T17:21:54.844Z,102056.50
2022-12-01T17:24:22.594Z,102045.13
2022-12-01T17:26:48.999Z,102060.53
2022-12-01T17:29:15.386Z,102057.72
2022-12-01T17:31:41.824Z,102062.38
2022-12-01T17:34:08.295Z,102055.88
2022-12-01T17:36:34.731Z,102063.25
2022-12-01T17:39:01.250Z,102059.84
2022-12-01T17:41:29.002Z,102058.31
2022-12-01T17:43:55.448Z,102064.56
2022-12-01T17:46:21.983Z,102061.84
2022-12-01T17:48:48.931Z,102058.00
2022-12-01T17:51:15.411Z,102058.66
2022-12-01T17:53:42.361Z,102052.78
2022-12-01T17:56:10.820Z,102055.22
2022-12-01T17:58:38.639Z,102065.38
2022-12-01T18:01:06.098Z,102066.31
2022-12-01T18:03:32.603Z,102063.06
2022-12-01T18:06:00.598Z,102056.16
2022-12-01T18:08:29.376Z,102056.34
2022-12-01T18:10:59.906Z,102060.84
2022-12-01T18:13:26.320Z,102071.28
2022-12-01T18:15:54.200Z,102076.25
2022-12-01T18:18:20.632Z,102065.97
2022-12-01T18:20:47.032Z,102064.69
2022-12-01T18:23:13.490Z,102063.97
2022-12-01T18:25:40.467Z,102067.59
2022-12-01T18:28:07.251Z,102067.94
2022-12-01T18:30:34.198Z,102072.66
2022-12-01T18:33:02.050Z,102073.09
2022-12-01T18:35:31.778Z,102070.88
2022-12-01T18:37:58.673Z,102068.91
2022-12-01T18:40:25.222Z,102069.91
2022-12-01T18:42:51.647Z,102078.28
2022-12-01T18:45:21.190Z,102076.47
2022-12-01T18:47:47.964Z,102071.00
2022-12-01T18:50:15.982Z,102076.47
2022-12-01T18:52:42.419Z,102070.59
2022-12-01T18:55:09.281Z,102064.44
2022-12-01T18:57:35.735Z,102071.16
2022-12-01T19:00:03.827Z,102072.84
2022-12-01T19:02:30.303Z,102074.53
2022-12-01T19:04:56.806Z,102065.50
2022-12-01T19:07:29.507Z,102069.06
2022-12-01T19:09:56.592Z,102065.00
2022-12-01T19:12:23.072Z,102064.72
2022-12-01T19:14:49.830Z,102063.34
2022-12-01T19:17:16.541Z,102059.91
2022-12-01T19:19:42.948Z,102066.28
2022-12-01T19:22:09.393Z,102067.03
2022-12-01T19:24:37.156Z,102065.69
2022-12-01T19:27:03.716Z,102071.78
2022-12-01T19:29:30.189Z,102070.25
2022-12-01T19:31:56.843Z,102069.94
2022-12-01T19:34:23.313Z,102064.38
2022-12-01T19:36:49.750Z,102068.75
2022-12-01T19:39:16.286Z,102061.16
2022-12-01T19:41:44.051Z,102061.41
2022-12-01T19:44:11.133Z,102063.28
2022-12-01T19:46:37.642Z,102067.34
2022-12-01T19:49:04.949Z,102067.94
2022-12-01T19:51:33.928Z,102065.78
2022-12-01T19:54:00.846Z,102065.63
2022-12-01T19:56:28.218Z,102070.25
2022-12-01T19:58:56.651Z,102063.91
2022-12-01T20:01:23.225Z,102069.97
2022-12-01T20:03:51.806Z,102072.94
2022-12-01T20:06:20.967Z,102062.44
2022-12-01T20:08:47.797Z,102071.63
2022-12-01T20:11:14.659Z,102069.56
2022-12-01T20:13:42.943Z,102073.03
2022-12-01T20:16:12.618Z,102075.13
2022-12-01T20:18:40.016Z,102068.34
2022-12-01T20:21:09.974Z,102067.31
2022-12-01T20:23:36.973Z,102067.72
2022-12-01T20:26:06.213Z,102063.28
2022-12-01T20:28:33.715Z,102070.41
2022-12-01T20:31:00.385Z,102069.25
2022-12-01T20:33:28.830Z,102072.16
2022-12-01T20:35:55.356Z,102067.31
2022-12-01T20:38:27.203Z,102061.66
2022-12-01T20:40:54.321Z,102069.66
2022-12-01T20:43:20.742Z,102070.28
2022-12-01T20:45:47.368Z,102068.63
2022-12-01T20:48:14.182Z,102066.50
2022-12-01T20:50:41.956Z,102066.75
2022-12-01T20:53:08.723Z,102059.53
2022-12-01T20:55:35.426Z,102066.50
2022-12-01T20:58:01.864Z,102061.22
2022-12-01T21:00:28.576Z,102057.19
2022-12-01T21:02:55.066Z,102066.31
2022-12-01T21:05:21.706Z,102062.31
2022-12-01T21:07:49.684Z,102056.97
2022-12-01T21:10:20.009Z,102056.38
2022-12-01T21:12:51.271Z,102054.06
2022-12-01T21:15:24.752Z,102060.63
2022-12-01T21:17:55.191Z,102063.78
2022-12-01T21:20:31.978Z,102044.81
2022-12-01T21:23:03.515Z,102053.44
2022-12-01T21:25:29.934Z,102047.13
2022-12-01T21:28:00.093Z,102048.41
2022-12-01T21:30:26.900Z,102038.03
2022-12-01T21:32:54.133Z,102047.72
2022-12-01T21:35:22.026Z,102040.97
2022-12-01T21:37:49.465Z,102043.50
2022-12-01T21:40:19.895Z,102039.66
2022-12-01T21:42:46.711Z,102036.16
2022-12-01T21:45:18.722Z,102036.75
2022-12-01T21:47:45.238Z,102038.03
2022-12-01T21:50:17.469Z,102034.25
2022-12-01T21:52:45.924Z,102035.13
2022-12-01T21:55:32.399Z,102033.91
2022-12-01T21:57:59.070Z,102037.91
2022-12-01T22:00:27.845Z,102025.41
2022-12-01T22:03:10.256Z,102036.78
2022-12-01T22:05:39.537Z,102028.34
2022-12-01T22:08:15.622Z,102039.78
2022-12-01T22:10:56.488Z,102030.69
2022-12-01T22:13:25.984Z,102030.31
2022-12-01T22:15:53.827Z,102028.00
2022-12-01T22:18:23.861Z,102022.47
2022-12-01T22:20:50.299Z,102027.53
2022-12-01T22:23:18.457Z,102018.72
2022-12-01T22:25:46.282Z,102019.97
2022-12-01T22:28:19.741Z,102024.78
2022-12-01T22:30:46.181Z,102026.50
2022-12-01T22:33:19.086Z,102025.47
2022-12-01T22:35:46.678Z,102016.22
2022-12-01T22:38:20.232Z,102021.06
2022-12-01T22:40:53.851Z,102016.84
2022-12-01T22:43:33.019Z,102023.78
2022-12-01T22:46:14.373Z,102023.59
2022-12-01T22:48:41.932Z,102019.94
2022-12-01T22:51:36.162Z,102021.28
2022-12-01T22:54:22.492Z,102020.00
2022-12-01T22:56:53.451Z,102022.09
2022-12-01T22:59:22.906Z,102013.44
2022-12-01T23:01:52.119Z,102014.09
2022-12-01T23:04:24.546Z,102011.94
2022-12-01T23:07:01.352Z,102013.63
2022-12-01T23:09:34.663Z,102010.22
2022-12-01T23:12:21.221Z,102010.81
2022-12-01T23:14:51.108Z,102010.53
2022-12-01T23:17:20.107Z,102015.16
2022-12-01T23:19:47.070Z,102004.22
2022-12-01T23:22:15.515Z,102004.38
2022-12-01T23:24:42.310Z,102000.63
2022-12-01T23:27:09.174Z,101996.59
2022-12-01T23:29:36.928Z,102000.22
2022-12-01T23:32:05.034Z,101999.13
2022-12-01T23:34:31.441Z,101996.19
2022-12-01T23:36:57.982Z,101993.06
2022-12-01T23:39:31.503Z,101992.25
2022-12-01T23:41:58.936Z,101991.59
2022-12-01T23:44:36.727Z,101994.53
2022-12-01T23:47:08.859Z,101986.53
2022-12-01T23:49:35.413Z,101988.00
2022-12-01T23:52:03.318Z,101990.72
2022-12-01T23:54:31.893Z,101981.06
2022-12-01T23:57:01.370Z,101990.13
2022-12-01T23:59:29.851Z,101986.75
